Gar Creek, Indiana
Current Conditions -  °F | °C
As of 1:54 PM on Friday 28 Nov 2014 (Local Time) from KFWA Reporting Station
Broken Clouds Broken Clouds  
Wind Chill: 19°   Ceiling: 15000
Heat Index: 29°   Visibility: 10mi
Dew Point: 18°   Wind: 12mph
Humidity: 64%   Direction: 180°S
Pressure: 30.21"   Gusts: NA
Location:  41.0925°N, 84.9712°W
Report Text: KFWA 281854Z 18010KT 10SM FEW050 SCT100 BKN150 BKN250 M02/M08 A3021 RMK AO2 SLP241 T10171078
Loading
Personal Weather Stations






























Interactive Weather Map New forecast layout! Learn more

10-Day Weather Forecast

Advertisements
Track Severe Weather on mobile